Sarah Schulte — 5BPA3 — position and weather

sailwx.info

Track history (hours):
 
Tides and Currents Weather Stations Pressure Air Temp Water Temp Dewpoint Dewpoint Depression Visibility Wind Speed Wind Dir Waves Ship Positions

Sarah Schulte

Last reported at 2015-Apr-18 21:33 UTC. Time now 2015-Apr-21 19:02 UTC.
Position N 01°13' E 103°58'.

Length 222 m; draft 10.3 m.

Type: Ship (hazmat cat A). MMSI: 210409000.

Date/timePositionNaut miles runAvg speedWind from/ knotsBaromVisibWave heightAir tempDewpointWater temp
2015-Apr-18 21:33N 01°13' E 103°58'5 0.2
2015-Apr-17 20:05N 01°13' E 103°53'  
2015-Apr-14 04:19N 22°07' E 114°20'1710.0
2015-Apr-14 02:33N 22°20' E 114°07'0 0.1
2015-Apr-14 01:33N 22°20' E 114°07'0 0.0
2015-Apr-14 00:33N 22°20' E 114°07'0 0.0
2015-Apr-13 23:33N 22°20' E 114°07'0 0.0
2015-Apr-13 22:33N 22°20' E 114°07'0 0.0
2015-Apr-13 21:33N 22°20' E 114°07'0 0.0
2015-Apr-13 20:33N 22°20' E 114°07'0 0.0
2015-Apr-13 19:33N 22°20' E 114°07'0 0.0
2015-Apr-13 18:33N 22°20' E 114°07'0 0.0
2015-Apr-13 17:33N 22°20' E 114°07'8 7.8
2015-Apr-13 16:33N 22°13' E 114°10'1210.8
2015-Apr-13 15:26N 22°08' E 114°23'247 5.8
2015-Apr-11 20:32N 24°06' E 118°19'1212.0
2015-Apr-11 19:32N 24°16' E 118°11'1111.4
2015-Apr-11 18:33N 24°25' E 118°04'6 5.9
2015-Apr-11 17:33N 24°31' E 118°05'0 0.0
2015-Apr-11 16:33N 24°31' E 118°05'0 0.0
2015-Apr-11 15:33N 24°31' E 118°05'0 0.0
2015-Apr-11 14:33N 24°31' E 118°05'0 0.0
2015-Apr-11 13:33N 24°31' E 118°05'0 0.0
2015-Apr-11 12:33N 24°31' E 118°05'0 0.1
2015-Apr-11 11:33N 24°31' E 118°05'9 8.6
2015-Apr-11 10:32N 24°23' E 118°08'8 8.0
2015-Apr-11 09:31N 24°15' E 118°11'8 8.6
2015-Apr-11 08:34N 24°11' E 118°19'10 9.9
2015-Apr-11 07:31N 24°14' E 118°29'7 5.8
2015-Apr-11 06:19N 24°17' E 118°36'2 2.2
2015-Apr-11 05:28N 24°16' E 118°34'4 2.7
2015-Apr-11 04:10N 24°15' E 118°30'1 1.7
2015-Apr-11 03:20N 24°14' E 118°29'6 7.3
2015-Apr-11 02:32N 24°17' E 118°35'10 9.8
2015-Apr-11 01:28N 24°21' E 118°45'44711.1
2015-Apr-09 09:10N 31°15' E 121°58'812.0
2015-Apr-09 08:29N 31°17' E 121°48'9 8.6
2015-Apr-09 07:29N 31°20' E 121°39'0 0.1
2015-Apr-09 06:33N 31°20' E 121°39'0 0.0
2015-Apr-09 05:33N 31°20' E 121°39'0 0.0
2015-Apr-09 04:30N 31°20' E 121°39'0 0.0
2015-Apr-09 03:27N 31°20' E 121°39'0 0.0
2015-Apr-09 02:33N 31°20' E 121°39'0 0.0
2015-Apr-09 01:25N 31°20' E 121°39'0 0.0
2015-Apr-09 00:22N 31°20' E 121°39'0 0.0
2015-Apr-08 23:04N 31°20' E 121°39'0 0.0
2015-Apr-08 22:28N 31°20' E 121°39'  
Track history (hours):
 
Tides and Currents Weather Stations Pressure Air Temp Water Temp Dewpoint Dewpoint Depression Visibility Wind Speed Wind Dir Waves Ship Positions

Sarah Schulte

Last reported at 2015-Apr-18 21:33 UTC. Time now 2015-Apr-21 19:02 UTC.
Position N 01°13' E 103°58'.

Length 222 m; draft 10.3 m.

Type: Ship (hazmat cat A). MMSI: 210409000.

Date/timePositionNaut miles runAvg speedWind from/ knotsBaromVisibWave heightAir tempDewpointWater temp
2015-Apr-18 21:33N 01°13' E 103°58'5 0.2
2015-Apr-17 20:05N 01°13' E 103°53'  
2015-Apr-14 04:19N 22°07' E 114°20'1710.0
2015-Apr-14 02:33N 22°20' E 114°07'0 0.1
2015-Apr-14 01:33N 22°20' E 114°07'0 0.0
2015-Apr-14 00:33N 22°20' E 114°07'0 0.0
2015-Apr-13 23:33N 22°20' E 114°07'0 0.0
2015-Apr-13 22:33N 22°20' E 114°07'0 0.0
2015-Apr-13 21:33N 22°20' E 114°07'0 0.0
2015-Apr-13 20:33N 22°20' E 114°07'0 0.0
2015-Apr-13 19:33N 22°20' E 114°07'0 0.0
2015-Apr-13 18:33N 22°20' E 114°07'0 0.0
2015-Apr-13 17:33N 22°20' E 114°07'8 7.8
2015-Apr-13 16:33N 22°13' E 114°10'1210.8
2015-Apr-13 15:26N 22°08' E 114°23'247 5.8
2015-Apr-11 20:32N 24°06' E 118°19'1212.0
2015-Apr-11 19:32N 24°16' E 118°11'1111.4
2015-Apr-11 18:33N 24°25' E 118°04'6 5.9
2015-Apr-11 17:33N 24°31' E 118°05'0 0.0
2015-Apr-11 16:33N 24°31' E 118°05'0 0.0
2015-Apr-11 15:33N 24°31' E 118°05'0 0.0
2015-Apr-11 14:33N 24°31' E 118°05'0 0.0
2015-Apr-11 13:33N 24°31' E 118°05'0 0.0
2015-Apr-11 12:33N 24°31' E 118°05'0 0.1
2015-Apr-11 11:33N 24°31' E 118°05'9 8.6
2015-Apr-11 10:32N 24°23' E 118°08'8 8.0
2015-Apr-11 09:31N 24°15' E 118°11'8 8.6
2015-Apr-11 08:34N 24°11' E 118°19'10 9.9
2015-Apr-11 07:31N 24°14' E 118°29'7 5.8
2015-Apr-11 06:19N 24°17' E 118°36'2 2.2
2015-Apr-11 05:28N 24°16' E 118°34'4 2.7
2015-Apr-11 04:10N 24°15' E 118°30'1 1.7
2015-Apr-11 03:20N 24°14' E 118°29'6 7.3
2015-Apr-11 02:32N 24°17' E 118°35'10 9.8
2015-Apr-11 01:28N 24°21' E 118°45'44711.1
2015-Apr-09 09:10N 31°15' E 121°58'812.0
2015-Apr-09 08:29N 31°17' E 121°48'9 8.6
2015-Apr-09 07:29N 31°20' E 121°39'0 0.1
2015-Apr-09 06:33N 31°20' E 121°39'0 0.0
2015-Apr-09 05:33N 31°20' E 121°39'0 0.0
2015-Apr-09 04:30N 31°20' E 121°39'0 0.0
2015-Apr-09 03:27N 31°20' E 121°39'0 0.0
2015-Apr-09 02:33N 31°20' E 121°39'0 0.0
2015-Apr-09 01:25N 31°20' E 121°39'0 0.0
2015-Apr-09 00:22N 31°20' E 121°39'0 0.0
2015-Apr-08 23:04N 31°20' E 121°39'0 0.0
2015-Apr-08 22:28N 31°20' E 121°39'  

Dump ship's entire track history